sensor_id;sensor_type;location;lat;lon;timestamp;pressure;altitude;pressure_sealevel;temperature;humidity
81816;BME280;71249;52.084;5.304;2024-02-14T00:00:13;101286.0;;;9.11;87.49
81816;BME280;71249;52.084;5.304;2024-02-14T00:01:49;101284.0;;;9.26;87.43
81816;BME280;71249;52.084;5.304;2024-02-14T00:05:00;101284.0;;;9.17;87.83
81816;BME280;71249;52.084;5.304;2024-02-14T00:06:37;101286.0;;;9.19;87.8
81816;BME280;71249;52.084;5.304;2024-02-14T00:08:13;101278.0;;;9.31;87.47
81816;BME280;71249;52.084;5.304;2024-02-14T00:11:26;101278.0;;;9.16;87.69
81816;BME280;71249;52.084;5.304;2024-02-14T00:13:02;101276.0;;;9.28;87.54
81816;BME280;71249;52.084;5.304;2024-02-14T00:14:38;101274.0;;;9.23;88.12
81816;BME280;71249;52.084;5.304;2024-02-14T00:17:50;101269.0;;;9.26;87.68
81816;BME280;71249;52.084;5.304;2024-02-14T00:19:26;101276.0;;;9.27;88.1
81816;BME280;71249;52.084;5.304;2024-02-14T00:21:03;101273.0;;;9.26;87.67
81816;BME280;71249;52.084;5.304;2024-02-14T00:22:39;101269.0;;;9.17;88.38
81816;BME280;71249;52.084;5.304;2024-02-14T00:25:51;101265.0;;;9.41;87.86
81816;BME280;71249;52.084;5.304;2024-02-14T00:27:27;101269.0;;;9.39;87.77
81816;BME280;71249;52.084;5.304;2024-02-14T00:29:03;101256.0;;;9.31;88.28
81816;BME280;71249;52.084;5.304;2024-02-14T00:32:18;101252.0;;;9.41;88.38
81816;BME280;71249;52.084;5.304;2024-02-14T00:33:55;101259.0;;;9.31;88.82
81816;BME280;71249;52.084;5.304;2024-02-14T00:35:31;101259.0;;;9.33;88.75
81816;BME280;71249;52.084;5.304;2024-02-14T00:38:43;101256.0;;;9.39;88.57
81816;BME280;71249;52.084;5.304;2024-02-14T00:40:20;101250.0;;;9.42;88.48
81816;BME280;71249;52.084;5.304;2024-02-14T00:41:56;101246.0;;;9.4;88.85
81816;BME280;71249;52.084;5.304;2024-02-14T00:43:32;101252.0;;;9.38;88.83
81816;BME280;71249;52.084;5.304;2024-02-14T00:46:45;101251.0;;;9.35;89.29
81816;BME280;71249;52.084;5.304;2024-02-14T00:48:21;101247.0;;;9.41;89.2
81816;BME280;71249;52.084;5.304;2024-02-14T00:49:57;101246.0;;;9.56;88.75
81816;BME280;71249;52.084;5.304;2024-02-14T00:53:09;101247.0;;;9.48;88.95
81816;BME280;71249;52.084;5.304;2024-02-14T00:54:45;101255.0;;;9.38;89.16
81816;BME280;71249;52.084;5.304;2024-02-14T00:56:22;101245.0;;;9.61;88.9
81816;BME280;71249;52.084;5.304;2024-02-14T00:59:34;101250.0;;;9.73;88.6
81816;BME280;71249;52.084;5.304;2024-02-14T01:01:10;101256.0;;;9.56;89.05
81816;BME280;71249;52.084;5.304;2024-02-14T01:02:46;101251.0;;;9.73;88.6
81816;BME280;71249;52.084;5.304;2024-02-14T01:04:22;101264.0;;;9.63;88.91
81816;BME280;71249;52.084;5.304;2024-02-14T01:07:37;101255.0;;;9.77;88.48
81816;BME280;71249;52.084;5.304;2024-02-14T01:09:13;101258.0;;;9.8;88.33
81816;BME280;71249;52.084;5.304;2024-02-14T01:10:50;101252.0;;;9.72;88.59
81816;BME280;71249;52.084;5.304;2024-02-14T01:14:02;101246.0;;;9.77;88.14
81816;BME280;71249;52.084;5.304;2024-02-14T01:15:38;101248.0;;;9.83;88.13
81816;BME280;71249;52.084;5.304;2024-02-14T01:17:14;101249.0;;;9.75;88.8
81816;BME280;71249;52.084;5.304;2024-02-14T01:20:26;101241.0;;;9.89;88.27
81816;BME280;71249;52.084;5.304;2024-02-14T01:22:03;101245.0;;;9.96;88.0
81816;BME280;71249;52.084;5.304;2024-02-14T01:23:38;101242.0;;;9.9;88.05
81816;BME280;71249;52.084;5.304;2024-02-14T01:26:51;101241.0;;;9.89;88.23
81816;BME280;71249;52.084;5.304;2024-02-14T01:28:27;101243.0;;;9.88;88.16
81816;BME280;71249;52.084;5.304;2024-02-14T01:30:03;101235.0;;;10.02;88.09
81816;BME280;71249;52.084;5.304;2024-02-14T01:31:40;101245.0;;;9.91;88.43
81816;BME280;71249;52.084;5.304;2024-02-14T01:34:52;101247.0;;;9.88;88.45
81816;BME280;71249;52.084;5.304;2024-02-14T01:36:28;101236.0;;;10.03;88.21
81816;BME280;71249;52.084;5.304;2024-02-14T01:38:04;101248.0;;;9.89;88.67
81816;BME280;71249;52.084;5.304;2024-02-14T01:41:17;101244.0;;;9.93;88.65
81816;BME280;71249;52.084;5.304;2024-02-14T01:42:53;101234.0;;;9.99;88.53
81816;BME280;71249;52.084;5.304;2024-02-14T01:44:29;101247.0;;;9.88;88.95
81816;BME280;71249;52.084;5.304;2024-02-14T01:47:42;101244.0;;;9.89;89.31
81816;BME280;71249;52.084;5.304;2024-02-14T01:49:18;101241.0;;;9.9;89.39
81816;BME280;71249;52.084;5.304;2024-02-14T01:50:54;101247.0;;;9.94;89.49
81816;BME280;71249;52.084;5.304;2024-02-14T01:52:30;101246.0;;;10.11;89.21
81816;BME280;71249;52.084;5.304;2024-02-14T01:55:43;101241.0;;;9.89;89.95
81816;BME280;71249;52.084;5.304;2024-02-14T01:57:19;101240.0;;;9.97;89.56
81816;BME280;71249;52.084;5.304;2024-02-14T01:58:55;101241.0;;;9.81;90.76
81816;BME280;71249;52.084;5.304;2024-02-14T02:02:09;101246.0;;;10.03;90.17
81816;BME280;71249;52.084;5.304;2024-02-14T02:03:48;101240.0;;;10.05;90.1
81816;BME280;71249;52.084;5.304;2024-02-14T02:05:24;101248.0;;;9.83;90.66
81816;BME280;71249;52.084;5.304;2024-02-14T02:08:36;101245.0;;;10.02;90.27
81816;BME280;71249;52.084;5.304;2024-02-14T02:10:12;101251.0;;;9.98;90.2
81816;BME280;71249;52.084;5.304;2024-02-14T02:11:49;101245.0;;;9.98;90.6
81816;BME280;71249;52.084;5.304;2024-02-14T02:13:26;101249.0;;;10.07;90.15
81816;BME280;71249;52.084;5.304;2024-02-14T02:16:38;101243.0;;;9.98;91.02
81816;BME280;71249;52.084;5.304;2024-02-14T02:18:14;101244.0;;;10.05;90.54
81816;BME280;71249;52.084;5.304;2024-02-14T02:19:53;101246.0;;;10.11;90.39
81816;BME280;71249;52.084;5.304;2024-02-14T02:23:05;101250.0;;;10.15;90.39
81816;BME280;71249;52.084;5.304;2024-02-14T02:24:41;101248.0;;;10.14;90.59
81816;BME280;71249;52.084;5.304;2024-02-14T02:26:17;101244.0;;;10.25;90.22
81816;BME280;71249;52.084;5.304;2024-02-14T02:29:30;101248.0;;;10.31;89.6
81816;BME280;71249;52.084;5.304;2024-02-14T02:31:09;101250.0;;;10.23;89.77
81816;BME280;71249;52.084;5.304;2024-02-14T02:32:45;101253.0;;;10.17;89.71
81816;BME280;71249;52.084;5.304;2024-02-14T02:34:21;101252.0;;;10.19;89.59
81816;BME280;71249;52.084;5.304;2024-02-14T02:37:34;101257.0;;;10.09;90.16
81816;BME280;71249;52.084;5.304;2024-02-14T02:39:11;101262.0;;;10.26;90.32
81816;BME280;71249;52.084;5.304;2024-02-14T02:40:47;101256.0;;;10.24;90.14
81816;BME280;71249;52.084;5.304;2024-02-14T02:44:00;101259.0;;;10.33;90.04
81816;BME280;71249;52.084;5.304;2024-02-14T02:45:36;101256.0;;;10.4;89.35
81816;BME280;71249;52.084;5.304;2024-02-14T02:47:12;101260.0;;;10.36;89.57
81816;BME280;71249;52.084;5.304;2024-02-14T02:50:24;101260.0;;;10.4;89.63
81816;BME280;71249;52.084;5.304;2024-02-14T02:52:00;101265.0;;;10.48;89.24
81816;BME280;71249;52.084;5.304;2024-02-14T02:53:36;101263.0;;;10.42;89.06
81816;BME280;71249;52.084;5.304;2024-02-14T02:56:49;101259.0;;;10.28;89.83
81816;BME280;71249;52.084;5.304;2024-02-14T02:58:25;101260.0;;;10.41;89.51
81816;BME280;71249;52.084;5.304;2024-02-14T03:00:01;101263.0;;;10.46;89.19
81816;BME280;71249;52.084;5.304;2024-02-14T03:01:37;101265.0;;;10.19;90.49
81816;BME280;71249;52.084;5.304;2024-02-14T03:04:49;101263.0;;;10.4;89.58
81816;BME280;71249;52.084;5.304;2024-02-14T03:06:25;101266.0;;;10.41;89.82
81816;BME280;71249;52.084;5.304;2024-02-14T03:08:01;101265.0;;;10.51;89.55
81816;BME280;71249;52.084;5.304;2024-02-14T03:11:15;101273.0;;;10.59;89.17
81816;BME280;71249;52.084;5.304;2024-02-14T03:12:51;101276.0;;;10.51;89.15
81816;BME280;71249;52.084;5.304;2024-02-14T03:14:28;101270.0;;;10.51;89.51
81816;BME280;71249;52.084;5.304;2024-02-14T03:17:41;101265.0;;;10.52;89.15
81816;BME280;71249;52.084;5.304;2024-02-14T03:19:17;101267.0;;;10.43;89.8
81816;BME280;71249;52.084;5.304;2024-02-14T03:20:53;101271.0;;;10.53;89.51
81816;BME280;71249;52.084;5.304;2024-02-14T03:22:29;101274.0;;;10.51;89.29
81816;BME280;71249;52.084;5.304;2024-02-14T03:25:42;101270.0;;;10.49;89.84
81816;BME280;71249;52.084;5.304;2024-02-14T03:27:18;101277.0;;;10.4;90.26
81816;BME280;71249;52.084;5.304;2024-02-14T03:28:54;101274.0;;;10.36;90.35
81816;BME280;71249;52.084;5.304;2024-02-14T03:32:07;101273.0;;;10.57;89.86
81816;BME280;71249;52.084;5.304;2024-02-14T03:33:43;101280.0;;;10.6;89.82
81816;BME280;71249;52.084;5.304;2024-02-14T03:35:19;101270.0;;;10.62;89.74
81816;BME280;71249;52.084;5.304;2024-02-14T03:38:31;101272.0;;;10.56;90.14
81816;BME280;71249;52.084;5.304;2024-02-14T03:40:08;101283.0;;;10.61;89.83
81816;BME280;71249;52.084;5.304;2024-02-14T03:41:44;101263.0;;;10.67;89.57
81816;BME280;71249;52.084;5.304;2024-02-14T03:43:21;101280.0;;;10.51;90.6
81816;BME280;71249;52.084;5.304;2024-02-14T03:46:33;101280.0;;;10.57;90.64
81816;BME280;71249;52.084;5.304;2024-02-14T03:48:09;101276.0;;;10.71;90.12
81816;BME280;71249;52.084;5.304;2024-02-14T03:49:45;101275.0;;;10.6;90.5
81816;BME280;71249;52.084;5.304;2024-02-14T03:52:59;101281.0;;;10.72;90.37
81816;BME280;71249;52.084;5.304;2024-02-14T03:54:35;101284.0;;;10.78;90.13
81816;BME280;71249;52.084;5.304;2024-02-14T03:56:11;101287.0;;;10.76;90.18
81816;BME280;71249;52.084;5.304;2024-02-14T03:59:24;101281.0;;;10.78;90.15
81816;BME280;71249;52.084;5.304;2024-02-14T04:01:00;101288.0;;;10.91;89.25
81816;BME280;71249;52.084;5.304;2024-02-14T04:02:36;101292.0;;;10.81;89.8
81816;BME280;71249;52.084;5.304;2024-02-14T04:05:48;101285.0;;;10.77;90.16
81816;BME280;71249;52.084;5.304;2024-02-14T04:07:24;101286.0;;;10.72;90.33
81816;BME280;71249;52.084;5.304;2024-02-14T04:09:00;101294.0;;;10.72;90.51
81816;BME280;71249;52.084;5.304;2024-02-14T04:10:36;101296.0;;;10.85;90.13
81816;BME280;71249;52.084;5.304;2024-02-14T04:13:48;101300.0;;;10.82;90.34
81816;BME280;71249;52.084;5.304;2024-02-14T04:15:25;101299.0;;;10.78;90.28
81816;BME280;71249;52.084;5.304;2024-02-14T04:17:01;101303.0;;;10.89;90.28
81816;BME280;71249;52.084;5.304;2024-02-14T04:20:13;101302.0;;;10.97;90.01
81816;BME280;71249;52.084;5.304;2024-02-14T04:21:49;101299.0;;;11.02;89.27
81816;BME280;71249;52.084;5.304;2024-02-14T04:23:25;101308.0;;;11.08;89.13
81816;BME280;71249;52.084;5.304;2024-02-14T04:26:38;101307.0;;;11.06;89.1
81816;BME280;71249;52.084;5.304;2024-02-14T04:28:13;101310.0;;;11.01;89.3
81816;BME280;71249;52.084;5.304;2024-02-14T04:29:50;101306.0;;;10.98;89.33
81816;BME280;71249;52.084;5.304;2024-02-14T04:33:02;101314.0;;;11.06;89.08
81816;BME280;71249;52.084;5.304;2024-02-14T04:34:38;101315.0;;;10.99;89.69
81816;BME280;71249;52.084;5.304;2024-02-14T04:36:14;101316.0;;;10.97;89.95
81816;BME280;71249;52.084;5.304;2024-02-14T04:37:50;101322.0;;;11.16;89.19
81816;BME280;71249;52.084;5.304;2024-02-14T04:41:03;101320.0;;;11.18;88.84
81816;BME280;71249;52.084;5.304;2024-02-14T04:42:38;101317.0;;;11.04;89.18
81816;BME280;71249;52.084;5.304;2024-02-14T04:44:14;101321.0;;;10.99;89.81
81816;BME280;71249;52.084;5.304;2024-02-14T04:47:27;101321.0;;;11.06;89.44
81816;BME280;71249;52.084;5.304;2024-02-14T04:49:03;101314.0;;;11.08;89.31
81816;BME280;71249;52.084;5.304;2024-02-14T04:50:39;101327.0;;;11.05;89.62
81816;BME280;71249;52.084;5.304;2024-02-14T04:53:51;101330.0;;;11.16;89.29
81816;BME280;71249;52.084;5.304;2024-02-14T04:55:27;101325.0;;;11.08;89.32
81816;BME280;71249;52.084;5.304;2024-02-14T04:57:03;101323.0;;;11.27;88.77
81816;BME280;71249;52.084;5.304;2024-02-14T04:58:39;101336.0;;;10.98;89.06
81816;BME280;71249;52.084;5.304;2024-02-14T05:03:29;101333.0;;;11.1;89.85
81816;BME280;71249;52.084;5.304;2024-02-14T05:05:05;101335.0;;;11.17;89.24
81816;BME280;71249;52.084;5.304;2024-02-14T05:08:17;101339.0;;;11.06;89.27
81816;BME280;71249;52.084;5.304;2024-02-14T05:09:53;101341.0;;;11.07;89.54
81816;BME280;71249;52.084;5.304;2024-02-14T05:11:29;101340.0;;;11.08;89.32
81816;BME280;71249;52.084;5.304;2024-02-14T05:14:41;101338.0;;;11.16;89.31
81816;BME280;71249;52.084;5.304;2024-02-14T05:16:18;101343.0;;;11.1;89.44
81816;BME280;71249;52.084;5.304;2024-02-14T05:17:54;101340.0;;;11.15;88.99
81816;BME280;71249;52.084;5.304;2024-02-14T05:21:06;101342.0;;;11.13;89.13
81816;BME280;71249;52.084;5.304;2024-02-14T05:22:43;101350.0;;;11.21;88.68
81816;BME280;71249;52.084;5.304;2024-02-14T05:24:19;101352.0;;;11.25;88.79
81816;BME280;71249;52.084;5.304;2024-02-14T05:25:55;101350.0;;;11.37;88.35
81816;BME280;71249;52.084;5.304;2024-02-14T05:29:07;101356.0;;;11.21;88.7
81816;BME280;71249;52.084;5.304;2024-02-14T05:30:43;101350.0;;;11.23;88.94
81816;BME280;71249;52.084;5.304;2024-02-14T05:32:20;101353.0;;;11.34;88.5
81816;BME280;71249;52.084;5.304;2024-02-14T05:35:32;101359.0;;;11.29;88.34
81816;BME280;71249;52.084;5.304;2024-02-14T05:37:08;101360.0;;;11.24;88.94
81816;BME280;71249;52.084;5.304;2024-02-14T05:38:44;101357.0;;;11.32;88.63
81816;BME280;71249;52.084;5.304;2024-02-14T05:41:56;101363.0;;;11.39;88.33
81816;BME280;71249;52.084;5.304;2024-02-14T05:43:32;101364.0;;;11.38;88.51
81816;BME280;71249;52.084;5.304;2024-02-14T05:45:09;101357.0;;;11.28;88.8
81816;BME280;71249;52.084;5.304;2024-02-14T05:46:45;101365.0;;;11.35;88.59
81816;BME280;71249;52.084;5.304;2024-02-14T05:49:58;101365.0;;;11.37;88.41
81816;BME280;71249;52.084;5.304;2024-02-14T05:51:34;101366.0;;;11.35;88.38
81816;BME280;71249;52.084;5.304;2024-02-14T05:53:10;101368.0;;;11.24;88.64
81816;BME280;71249;52.084;5.304;2024-02-14T05:56:22;101366.0;;;11.37;88.51
81816;BME280;71249;52.084;5.304;2024-02-14T05:57:58;101369.0;;;11.36;88.86
81816;BME280;71249;52.084;5.304;2024-02-14T05:59:34;101366.0;;;11.36;88.65
81816;BME280;71249;52.084;5.304;2024-02-14T06:02:47;101366.0;;;11.28;88.78
81816;BME280;71249;52.084;5.304;2024-02-14T06:04:23;101372.0;;;11.42;88.36
81816;BME280;71249;52.084;5.304;2024-02-14T06:05:59;101368.0;;;11.49;87.88
81816;BME280;71249;52.084;5.304;2024-02-14T06:09:11;101375.0;;;11.44;88.07
81816;BME280;71249;52.084;5.304;2024-02-14T06:10:47;101372.0;;;11.32;88.14
81816;BME280;71249;52.084;5.304;2024-02-14T06:12:23;101372.0;;;11.44;88.17
81816;BME280;71249;52.084;5.304;2024-02-14T06:13:59;101378.0;;;11.48;88.17
81816;BME280;71249;52.084;5.304;2024-02-14T06:17:12;101381.0;;;11.2;88.44
81816;BME280;71249;52.084;5.304;2024-02-14T06:18:48;101385.0;;;11.36;88.77
81816;BME280;71249;52.084;5.304;2024-02-14T06:20:24;101388.0;;;11.14;89.59
81816;BME280;71249;52.084;5.304;2024-02-14T06:23:35;101391.0;;;11.2;89.64
81816;BME280;71249;52.084;5.304;2024-02-14T06:25:11;101386.0;;;11.42;88.8
81816;BME280;71249;52.084;5.304;2024-02-14T06:26:47;101395.0;;;11.24;88.84
81816;BME280;71249;52.084;5.304;2024-02-14T06:29:59;101397.0;;;11.14;89.75
81816;BME280;71249;52.084;5.304;2024-02-14T06:31:36;101393.0;;;11.34;89.36
81816;BME280;71249;52.084;5.304;2024-02-14T06:33:12;101400.0;;;11.44;88.91
81816;BME280;71249;52.084;5.304;2024-02-14T06:36:24;101402.0;;;11.27;89.5
81816;BME280;71249;52.084;5.304;2024-02-14T06:38:00;101402.0;;;11.27;89.5
81816;BME280;71249;52.084;5.304;2024-02-14T06:39:36;101411.0;;;11.35;89.38
81816;BME280;71249;52.084;5.304;2024-02-14T06:41:12;101417.0;;;11.4;88.65
81816;BME280;71249;52.084;5.304;2024-02-14T06:44:24;101419.0;;;11.39;89.18
81816;BME280;71249;52.084;5.304;2024-02-14T06:46:00;101425.0;;;11.4;89.29
81816;BME280;71249;52.084;5.304;2024-02-14T06:49:13;101420.0;;;11.31;89.37
81816;BME280;71249;52.084;5.304;2024-02-14T06:50:49;101415.0;;;11.42;89.23
81816;BME280;71249;52.084;5.304;2024-02-14T06:52:25;101420.0;;;11.44;89.21
81816;BME280;71249;52.084;5.304;2024-02-14T06:55:38;101425.0;;;11.44;89.36
81816;BME280;71249;52.084;5.304;2024-02-14T06:57:14;101417.0;;;11.26;89.58
81816;BME280;71249;52.084;5.304;2024-02-14T06:58:50;101417.0;;;11.51;88.78
81816;BME280;71249;52.084;5.304;2024-02-14T07:02:04;101416.0;;;11.46;88.87
81816;BME280;71249;52.084;5.304;2024-02-14T07:03:40;101426.0;;;11.39;88.8
81816;BME280;71249;52.084;5.304;2024-02-14T07:05:17;101421.0;;;11.42;88.76
81816;BME280;71249;52.084;5.304;2024-02-14T07:06:53;101431.0;;;11.46;88.72
81816;BME280;71249;52.084;5.304;2024-02-14T07:10:06;101426.0;;;11.58;88.74
81816;BME280;71249;52.084;5.304;2024-02-14T07:11:42;101434.0;;;11.53;88.65
81816;BME280;71249;52.084;5.304;2024-02-14T07:13:18;101430.0;;;11.57;88.62
81816;BME280;71249;52.084;5.304;2024-02-14T07:16:30;101432.0;;;11.49;89.02
81816;BME280;71249;52.084;5.304;2024-02-14T07:18:06;101425.0;;;11.58;88.64
81816;BME280;71249;52.084;5.304;2024-02-14T07:19:42;101427.0;;;11.67;88.42
81816;BME280;71249;52.084;5.304;2024-02-14T07:22:54;101434.0;;;11.52;88.8
81816;BME280;71249;52.084;5.304;2024-02-14T07:24:31;101434.0;;;11.48;89.02
81816;BME280;71249;52.084;5.304;2024-02-14T07:26:07;101436.0;;;11.53;88.83
81816;BME280;71249;52.084;5.304;2024-02-14T07:27:43;101428.0;;;11.55;88.96
81816;BME280;71249;52.084;5.304;2024-02-14T07:30:55;101428.0;;;11.58;88.82
81816;BME280;71249;52.084;5.304;2024-02-14T07:32:31;101432.0;;;11.55;88.69
81816;BME280;71249;52.084;5.304;2024-02-14T07:34:07;101428.0;;;11.61;88.76
81816;BME280;71249;52.084;5.304;2024-02-14T07:37:19;101435.0;;;11.53;88.87
81816;BME280;71249;52.084;5.304;2024-02-14T07:38:56;101430.0;;;11.66;88.59
81816;BME280;71249;52.084;5.304;2024-02-14T07:40:32;101431.0;;;11.55;88.68
81816;BME280;71249;52.084;5.304;2024-02-14T07:43:47;101436.0;;;11.63;88.57
81816;BME280;71249;52.084;5.304;2024-02-14T07:45:23;101442.0;;;11.42;89.69
81816;BME280;71249;52.084;5.304;2024-02-14T07:46:59;101442.0;;;11.51;89.17
81816;BME280;71249;52.084;5.304;2024-02-14T07:50:11;101441.0;;;11.63;89.02
81816;BME280;71249;52.084;5.304;2024-02-14T07:51:47;101444.0;;;11.5;89.1
81816;BME280;71249;52.084;5.304;2024-02-14T07:53:23;101445.0;;;11.62;89.14
81816;BME280;71249;52.084;5.304;2024-02-14T07:55:00;101448.0;;;11.64;88.91
81816;BME280;71249;52.084;5.304;2024-02-14T07:58:12;101443.0;;;11.77;88.55
81816;BME280;71249;52.084;5.304;2024-02-14T07:59:48;101448.0;;;11.72;88.8
81816;BME280;71249;52.084;5.304;2024-02-14T08:01:25;101451.0;;;11.73;88.29
81816;BME280;71249;52.084;5.304;2024-02-14T08:04:37;101447.0;;;11.64;88.55
81816;BME280;71249;52.084;5.304;2024-02-14T08:06:14;101452.0;;;11.79;88.6
81816;BME280;71249;52.084;5.304;2024-02-14T08:07:49;101456.0;;;11.76;88.54
81816;BME280;71249;52.084;5.304;2024-02-14T08:11:02;101453.0;;;11.74;88.59
81816;BME280;71249;52.084;5.304;2024-02-14T08:12:38;101460.0;;;11.79;88.52
81816;BME280;71249;52.084;5.304;2024-02-14T08:14:14;101462.0;;;11.8;88.59
81816;BME280;71249;52.084;5.304;2024-02-14T08:15:53;101464.0;;;11.74;88.92
81816;BME280;71249;52.084;5.304;2024-02-14T08:19:05;101455.0;;;11.79;88.55
81816;BME280;71249;52.084;5.304;2024-02-14T08:20:41;101465.0;;;11.59;89.15
81816;BME280;71249;52.084;5.304;2024-02-14T08:22:17;101461.0;;;11.74;89.0
81816;BME280;71249;52.084;5.304;2024-02-14T08:25:30;101467.0;;;11.75;88.91
81816;BME280;71249;52.084;5.304;2024-02-14T08:27:06;101463.0;;;11.8;88.77
81816;BME280;71249;52.084;5.304;2024-02-14T08:28:43;101461.0;;;11.58;89.63
81816;BME280;71249;52.084;5.304;2024-02-14T08:31:55;101464.0;;;11.73;89.49
81816;BME280;71249;52.084;5.304;2024-02-14T08:33:30;101468.0;;;11.72;89.52
81816;BME280;71249;52.084;5.304;2024-02-14T08:35:07;101466.0;;;11.73;89.57
81816;BME280;71249;52.084;5.304;2024-02-14T08:36:44;101465.0;;;11.88;89.29
81816;BME280;71249;52.084;5.304;2024-02-14T08:39:56;101470.0;;;11.82;89.31
81816;BME280;71249;52.084;5.304;2024-02-14T08:41:32;101470.0;;;11.74;90.02
81816;BME280;71249;52.084;5.304;2024-02-14T08:43:08;101473.0;;;11.86;89.58
81816;BME280;71249;52.084;5.304;2024-02-14T08:46:21;101467.0;;;11.86;89.47
81816;BME280;71249;52.084;5.304;2024-02-14T08:47:57;101471.0;;;11.92;89.2
81816;BME280;71249;52.084;5.304;2024-02-14T08:49:36;101469.0;;;11.83;89.38
81816;BME280;71249;52.084;5.304;2024-02-14T08:52:48;101470.0;;;11.96;88.98
81816;BME280;71249;52.084;5.304;2024-02-14T08:54:24;101468.0;;;11.86;89.12
81816;BME280;71249;52.084;5.304;2024-02-14T08:56:00;101467.0;;;11.87;89.33
81816;BME280;71249;52.084;5.304;2024-02-14T08:59:12;101471.0;;;11.95;89.4
81816;BME280;71249;52.084;5.304;2024-02-14T09:00:49;101465.0;;;11.87;89.35
81816;BME280;71249;52.084;5.304;2024-02-14T09:02:25;101470.0;;;11.84;89.78
81816;BME280;71249;52.084;5.304;2024-02-14T09:04:01;101471.0;;;12.02;89.1
81816;BME280;71249;52.084;5.304;2024-02-14T09:08:49;101471.0;;;12.06;88.69
81816;BME280;71249;52.084;5.304;2024-02-14T09:10:25;101475.0;;;12.01;88.94
81816;BME280;71249;52.084;5.304;2024-02-14T09:13:37;101480.0;;;12.15;88.6
81816;BME280;71249;52.084;5.304;2024-02-14T09:15:14;101483.0;;;12.08;88.48
81816;BME280;71249;52.084;5.304;2024-02-14T09:16:49;101486.0;;;12.08;88.59
81816;BME280;71249;52.084;5.304;2024-02-14T09:20:02;101486.0;;;11.99;88.96
81816;BME280;71249;52.084;5.304;2024-02-14T09:21:38;101484.0;;;11.95;89.3
81816;BME280;71249;52.084;5.304;2024-02-14T09:23:14;101486.0;;;12.06;88.81
81816;BME280;71249;52.084;5.304;2024-02-14T09:24:50;101491.0;;;12.07;88.66
81816;BME280;71249;52.084;5.304;2024-02-14T09:28:02;101495.0;;;12.13;88.46
81816;BME280;71249;52.084;5.304;2024-02-14T09:29:38;101497.0;;;12.05;88.7
81816;BME280;71249;52.084;5.304;2024-02-14T09:34:34;101497.0;;;12.14;88.49
81816;BME280;71249;52.084;5.304;2024-02-14T09:36:10;101496.0;;;12.09;88.82
81816;BME280;71249;52.084;5.304;2024-02-14T09:37:46;101502.0;;;12.01;88.8
81816;BME280;71249;52.084;5.304;2024-02-14T09:41:05;101498.0;;;12.01;88.95
81816;BME280;71249;52.084;5.304;2024-02-14T09:42:44;101500.0;;;12.06;88.62
81816;BME280;71249;52.084;5.304;2024-02-14T09:44:24;101503.0;;;12.08;88.54
81816;BME280;71249;52.084;5.304;2024-02-14T09:46:03;101495.0;;;12.08;88.8
81816;BME280;71249;52.084;5.304;2024-02-14T09:49:18;101498.0;;;12.26;88.22
81816;BME280;71249;52.084;5.304;2024-02-14T09:50:56;101501.0;;;12.19;88.3
81816;BME280;71249;52.084;5.304;2024-02-14T09:52:33;101505.0;;;12.2;88.42
81816;BME280;71249;52.084;5.304;2024-02-14T09:54:11;101510.0;;;12.13;88.47
81816;BME280;71249;52.084;5.304;2024-02-14T09:57:24;101507.0;;;12.29;87.9
81816;BME280;71249;52.084;5.304;2024-02-14T09:59:02;101507.0;;;12.22;88.43
81816;BME280;71249;52.084;5.304;2024-02-14T10:00:38;101506.0;;;12.27;88.2
81816;BME280;71249;52.084;5.304;2024-02-14T10:03:51;101513.0;;;12.33;87.83
81816;BME280;71249;52.084;5.304;2024-02-14T10:05:28;101508.0;;;12.24;87.98
81816;BME280;71249;52.084;5.304;2024-02-14T10:07:05;101518.0;;;12.31;88.02
81816;BME280;71249;52.084;5.304;2024-02-14T10:10:17;101518.0;;;12.25;88.41
81816;BME280;71249;52.084;5.304;2024-02-14T10:11:53;101506.0;;;12.26;88.08
81816;BME280;71249;52.084;5.304;2024-02-14T10:13:29;101509.0;;;12.13;88.34
81816;BME280;71249;52.084;5.304;2024-02-14T10:15:06;101509.0;;;12.31;88.05
81816;BME280;71249;52.084;5.304;2024-02-14T10:18:18;101507.0;;;12.2;88.45
81816;BME280;71249;52.084;5.304;2024-02-14T10:19:55;101507.0;;;12.2;88.32
81816;BME280;71249;52.084;5.304;2024-02-14T10:21:31;101505.0;;;12.29;88.25
81816;BME280;71249;52.084;5.304;2024-02-14T10:24:46;101510.0;;;12.22;88.59
81816;BME280;71249;52.084;5.304;2024-02-14T10:26:22;101509.0;;;12.32;88.17
81816;BME280;71249;52.084;5.304;2024-02-14T10:28:03;101513.0;;;12.25;88.49
81816;BME280;71249;52.084;5.304;2024-02-14T10:31:20;101514.0;;;12.38;88.25
81816;BME280;71249;52.084;5.304;2024-02-14T10:32:58;101515.0;;;12.35;88.46
81816;BME280;71249;52.084;5.304;2024-02-14T10:34:37;101521.0;;;12.39;88.56
81816;BME280;71249;52.084;5.304;2024-02-14T10:36:13;101523.0;;;12.46;88.41
81816;BME280;71249;52.084;5.304;2024-02-14T10:39:29;101515.0;;;12.4;88.93
81816;BME280;71249;52.084;5.304;2024-02-14T10:41:06;101518.0;;;12.49;88.63
81816;BME280;71249;52.084;5.304;2024-02-14T10:42:42;101519.0;;;12.53;88.67
81816;BME280;71249;52.084;5.304;2024-02-14T10:45:54;101521.0;;;12.56;88.83
81816;BME280;71249;52.084;5.304;2024-02-14T10:47:34;101525.0;;;12.56;88.77
81816;BME280;71249;52.084;5.304;2024-02-14T10:49:11;101525.0;;;12.49;88.81
81816;BME280;71249;52.084;5.304;2024-02-14T10:50:49;101517.0;;;12.36;89.51
81816;BME280;71249;52.084;5.304;2024-02-14T10:54:10;101523.0;;;12.57;89.06
81816;BME280;71249;52.084;5.304;2024-02-14T10:55:48;101526.0;;;12.6;88.94
81816;BME280;71249;52.084;5.304;2024-02-14T10:57:25;101524.0;;;12.64;88.85
81816;BME280;71249;52.084;5.304;2024-02-14T10:59:02;101530.0;;;12.63;88.69
81816;BME280;71249;52.084;5.304;2024-02-14T11:02:17;101526.0;;;12.56;89.13
81816;BME280;71249;52.084;5.304;2024-02-14T11:03:55;101526.0;;;12.68;88.7
81816;BME280;71249;52.084;5.304;2024-02-14T11:05:31;101527.0;;;12.62;88.87
81816;BME280;71249;52.084;5.304;2024-02-14T11:08:58;101524.0;;;12.7;88.55
81816;BME280;71249;52.084;5.304;2024-02-14T11:10:37;101518.0;;;12.65;88.8
81816;BME280;71249;52.084;5.304;2024-02-14T11:12:13;101515.0;;;12.47;89.23
81816;BME280;71249;52.084;5.304;2024-02-14T11:13:52;101512.0;;;12.75;88.72